sensor_id;sensor_type;location;lat;lon;timestamp;P1;durP1;ratioP1;P2;durP2;ratioP2
61025;SDS011;46911;32.650;-16.902;2023-11-21T00:01:57;12.45;;;2.65;;
61025;SDS011;46911;32.650;-16.902;2023-11-21T00:03:58;8.18;;;2.10;;
61025;SDS011;46911;32.650;-16.902;2023-11-21T00:06:01;6.57;;;1.40;;
61025;SDS011;46911;32.650;-16.902;2023-11-21T00:08:09;8.40;;;2.00;;
61025;SDS011;46911;32.650;-16.902;2023-11-21T00:10:11;12.65;;;1.98;;
61025;SDS011;46911;32.650;-16.902;2023-11-21T00:12:14;14.73;;;2.58;;
61025;SDS011;46911;32.650;-16.902;2023-11-21T00:14:17;13.50;;;2.40;;
61025;SDS011;46911;32.650;-16.902;2023-11-21T00:16:18;11.07;;;1.88;;
61025;SDS011;46911;32.650;-16.902;2023-11-21T00:18:21;11.57;;;2.08;;
61025;SDS011;46911;32.650;-16.902;2023-11-21T00:20:22;5.53;;;1.55;;
61025;SDS011;46911;32.650;-16.902;2023-11-21T00:22:27;10.55;;;1.92;;
61025;SDS011;46911;32.650;-16.902;2023-11-21T00:24:28;6.90;;;1.55;;
61025;SDS011;46911;32.650;-16.902;2023-11-21T00:26:32;9.23;;;1.42;;
61025;SDS011;46911;32.650;-16.902;2023-11-21T00:28:38;9.10;;;1.80;;
61025;SDS011;46911;32.650;-16.902;2023-11-21T00:30:39;5.00;;;1.40;;
61025;SDS011;46911;32.650;-16.902;2023-11-21T00:32:42;4.95;;;1.50;;
61025;SDS011;46911;32.650;-16.902;2023-11-21T00:34:46;8.02;;;2.33;;
61025;SDS011;46911;32.650;-16.902;2023-11-21T00:36:47;7.47;;;1.60;;
61025;SDS011;46911;32.650;-16.902;2023-11-21T00:38:50;5.15;;;1.42;;
61025;SDS011;46911;32.650;-16.902;2023-11-21T00:40:56;9.75;;;1.70;;
61025;SDS011;46911;32.650;-16.902;2023-11-21T00:42:57;5.40;;;1.60;;
61025;SDS011;46911;32.650;-16.902;2023-11-21T00:44:58;11.00;;;2.05;;
61025;SDS011;46911;32.650;-16.902;2023-11-21T00:47:06;13.88;;;2.00;;
61025;SDS011;46911;32.650;-16.902;2023-11-21T00:49:09;8.13;;;1.98;;
61025;SDS011;46911;32.650;-16.902;2023-11-21T00:51:13;9.35;;;1.63;;
61025;SDS011;46911;32.650;-16.902;2023-11-21T00:53:16;19.05;;;2.38;;
61025;SDS011;46911;32.650;-16.902;2023-11-21T00:55:17;8.40;;;1.52;;
61025;SDS011;46911;32.650;-16.902;2023-11-21T00:57:23;11.68;;;1.48;;
61025;SDS011;46911;32.650;-16.902;2023-11-21T00:59:26;8.30;;;1.40;;
61025;SDS011;46911;32.650;-16.902;2023-11-21T01:01:27;9.90;;;1.20;;
61025;SDS011;46911;32.650;-16.902;2023-11-21T01:03:28;11.43;;;1.65;;
61025;SDS011;46911;32.650;-16.902;2023-11-21T01:05:29;15.43;;;1.58;;
61025;SDS011;46911;32.650;-16.902;2023-11-21T01:07:30;8.95;;;2.05;;
61025;SDS011;46911;32.650;-16.902;2023-11-21T01:09:31;9.80;;;1.98;;
61025;SDS011;46911;32.650;-16.902;2023-11-21T01:11:32;8.68;;;1.95;;
61025;SDS011;46911;32.650;-16.902;2023-11-21T01:13:39;8.13;;;1.60;;
61025;SDS011;46911;32.650;-16.902;2023-11-21T01:15:41;6.43;;;1.90;;
61025;SDS011;46911;32.650;-16.902;2023-11-21T01:17:42;5.50;;;1.42;;
61025;SDS011;46911;32.650;-16.902;2023-11-21T01:19:45;9.40;;;1.50;;
61025;SDS011;46911;32.650;-16.902;2023-11-21T01:21:46;4.50;;;1.33;;
61025;SDS011;46911;32.650;-16.902;2023-11-21T01:23:47;5.57;;;1.23;;
61025;SDS011;46911;32.650;-16.902;2023-11-21T01:25:51;6.65;;;1.42;;
61025;SDS011;46911;32.650;-16.902;2023-11-21T01:27:53;11.57;;;1.30;;
61025;SDS011;46911;32.650;-16.902;2023-11-21T01:29:53;6.72;;;1.05;;
61025;SDS011;46911;32.650;-16.902;2023-11-21T01:32:02;5.25;;;1.35;;
61025;SDS011;46911;32.650;-16.902;2023-11-21T01:34:08;4.78;;;1.20;;
61025;SDS011;46911;32.650;-16.902;2023-11-21T01:36:14;4.47;;;0.93;;
61025;SDS011;46911;32.650;-16.902;2023-11-21T01:38:19;6.85;;;1.40;;
61025;SDS011;46911;32.650;-16.902;2023-11-21T01:40:21;5.18;;;1.40;;
61025;SDS011;46911;32.650;-16.902;2023-11-21T01:42:22;5.97;;;1.52;;
61025;SDS011;46911;32.650;-16.902;2023-11-21T01:44:23;6.18;;;1.25;;
61025;SDS011;46911;32.650;-16.902;2023-11-21T01:46:26;5.78;;;1.33;;
61025;SDS011;46911;32.650;-16.902;2023-11-21T01:48:30;3.75;;;0.95;;
61025;SDS011;46911;32.650;-16.902;2023-11-21T01:50:32;4.50;;;1.27;;
61025;SDS011;46911;32.650;-16.902;2023-11-21T01:52:37;6.03;;;1.48;;
61025;SDS011;46911;32.650;-16.902;2023-11-21T01:54:39;5.72;;;1.08;;
61025;SDS011;46911;32.650;-16.902;2023-11-21T01:56:46;8.25;;;1.55;;
61025;SDS011;46911;32.650;-16.902;2023-11-21T01:58:49;4.55;;;1.10;;
61025;SDS011;46911;32.650;-16.902;2023-11-21T02:00:59;7.05;;;1.00;;
61025;SDS011;46911;32.650;-16.902;2023-11-21T02:03:02;6.75;;;1.70;;
61025;SDS011;46911;32.650;-16.902;2023-11-21T02:05:07;12.32;;;2.13;;
61025;SDS011;46911;32.650;-16.902;2023-11-21T02:07:09;5.32;;;1.30;;
61025;SDS011;46911;32.650;-16.902;2023-11-21T02:09:10;9.73;;;1.60;;
61025;SDS011;46911;32.650;-16.902;2023-11-21T02:11:15;7.50;;;1.38;;
61025;SDS011;46911;32.650;-16.902;2023-11-21T02:13:16;3.88;;;1.40;;
61025;SDS011;46911;32.650;-16.902;2023-11-21T02:15:19;6.60;;;0.82;;
61025;SDS011;46911;32.650;-16.902;2023-11-21T02:17:23;5.30;;;1.20;;
61025;SDS011;46911;32.650;-16.902;2023-11-21T02:19:28;9.18;;;1.35;;
61025;SDS011;46911;32.650;-16.902;2023-11-21T02:21:31;12.02;;;0.77;;
61025;SDS011;46911;32.650;-16.902;2023-11-21T02:23:35;6.32;;;0.82;;
61025;SDS011;46911;32.650;-16.902;2023-11-21T02:25:37;5.72;;;0.90;;
61025;SDS011;46911;32.650;-16.902;2023-11-21T02:27:40;13.35;;;2.03;;
61025;SDS011;46911;32.650;-16.902;2023-11-21T02:29:44;6.38;;;1.00;;
61025;SDS011;46911;32.650;-16.902;2023-11-21T02:31:49;5.70;;;1.48;;
61025;SDS011;46911;32.650;-16.902;2023-11-21T02:33:52;12.35;;;1.23;;
61025;SDS011;46911;32.650;-16.902;2023-11-21T02:35:53;10.40;;;1.33;;
61025;SDS011;46911;32.650;-16.902;2023-11-21T02:37:55;3.35;;;0.90;;
61025;SDS011;46911;32.650;-16.902;2023-11-21T02:39:56;6.50;;;0.90;;
61025;SDS011;46911;32.650;-16.902;2023-11-21T02:41:57;9.27;;;1.33;;
61025;SDS011;46911;32.650;-16.902;2023-11-21T02:43:58;4.78;;;1.25;;
61025;SDS011;46911;32.650;-16.902;2023-11-21T02:45:58;6.85;;;1.23;;
61025;SDS011;46911;32.650;-16.902;2023-11-21T02:48:04;4.78;;;1.40;;
61025;SDS011;46911;32.650;-16.902;2023-11-21T02:50:06;6.20;;;1.20;;
61025;SDS011;46911;32.650;-16.902;2023-11-21T02:52:10;5.85;;;0.82;;
61025;SDS011;46911;32.650;-16.902;2023-11-21T02:54:11;4.85;;;1.00;;
61025;SDS011;46911;32.650;-16.902;2023-11-21T02:56:12;3.75;;;0.95;;
61025;SDS011;46911;32.650;-16.902;2023-11-21T02:58:17;3.10;;;0.80;;
61025;SDS011;46911;32.650;-16.902;2023-11-21T03:00:20;4.38;;;1.00;;
61025;SDS011;46911;32.650;-16.902;2023-11-21T03:02:24;4.90;;;0.90;;
61025;SDS011;46911;32.650;-16.902;2023-11-21T03:04:25;10.65;;;1.55;;
61025;SDS011;46911;32.650;-16.902;2023-11-21T03:06:29;4.70;;;0.90;;
61025;SDS011;46911;32.650;-16.902;2023-11-21T03:08:32;3.08;;;1.27;;
61025;SDS011;46911;32.650;-16.902;2023-11-21T03:10:33;5.13;;;1.00;;
61025;SDS011;46911;32.650;-16.902;2023-11-21T03:12:34;4.35;;;1.05;;
61025;SDS011;46911;32.650;-16.902;2023-11-21T03:14:35;2.78;;;0.82;;
61025;SDS011;46911;32.650;-16.902;2023-11-21T03:16:38;13.63;;;1.10;;
61025;SDS011;46911;32.650;-16.902;2023-11-21T03:18:41;8.38;;;1.40;;
61025;SDS011;46911;32.650;-16.902;2023-11-21T03:20:43;3.75;;;0.80;;
61025;SDS011;46911;32.650;-16.902;2023-11-21T03:22:46;5.10;;;0.90;;
61025;SDS011;46911;32.650;-16.902;2023-11-21T03:24:48;4.30;;;1.13;;
61025;SDS011;46911;32.650;-16.902;2023-11-21T03:26:49;2.65;;;0.75;;
61025;SDS011;46911;32.650;-16.902;2023-11-21T03:28:53;3.78;;;0.90;;
61025;SDS011;46911;32.650;-16.902;2023-11-21T03:30:54;6.43;;;0.80;;
61025;SDS011;46911;32.650;-16.902;2023-11-21T03:32:56;6.40;;;1.90;;
61025;SDS011;46911;32.650;-16.902;2023-11-21T03:34:57;5.82;;;1.00;;
61025;SDS011;46911;32.650;-16.902;2023-11-21T03:36:58;9.98;;;1.02;;
61025;SDS011;46911;32.650;-16.902;2023-11-21T03:38:59;8.43;;;0.70;;
61025;SDS011;46911;32.650;-16.902;2023-11-21T03:41:03;11.35;;;1.13;;
61025;SDS011;46911;32.650;-16.902;2023-11-21T03:43:05;4.85;;;1.10;;
61025;SDS011;46911;32.650;-16.902;2023-11-21T03:45:09;5.35;;;0.75;;
61025;SDS011;46911;32.650;-16.902;2023-11-21T03:47:10;4.53;;;0.85;;
61025;SDS011;46911;32.650;-16.902;2023-11-21T03:49:11;5.50;;;0.80;;
61025;SDS011;46911;32.650;-16.902;2023-11-21T03:51:15;3.92;;;1.00;;
61025;SDS011;46911;32.650;-16.902;2023-11-21T03:53:19;5.20;;;1.20;;
61025;SDS011;46911;32.650;-16.902;2023-11-21T03:55:20;5.40;;;1.13;;
61025;SDS011;46911;32.650;-16.902;2023-11-21T03:57:25;3.30;;;1.25;;
61025;SDS011;46911;32.650;-16.902;2023-11-21T03:59:30;3.05;;;0.85;;
61025;SDS011;46911;32.650;-16.902;2023-11-21T04:01:31;8.98;;;1.05;;
61025;SDS011;46911;32.650;-16.902;2023-11-21T04:03:35;9.30;;;1.55;;
61025;SDS011;46911;32.650;-16.902;2023-11-21T04:05:36;6.80;;;1.45;;
61025;SDS011;46911;32.650;-16.902;2023-11-21T04:07:39;9.18;;;0.98;;
61025;SDS011;46911;32.650;-16.902;2023-11-21T04:09:42;6.97;;;1.00;;
61025;SDS011;46911;32.650;-16.902;2023-11-21T04:11:43;9.73;;;0.98;;
61025;SDS011;46911;32.650;-16.902;2023-11-21T04:13:50;6.72;;;0.90;;
61025;SDS011;46911;32.650;-16.902;2023-11-21T04:15:53;5.32;;;0.95;;
61025;SDS011;46911;32.650;-16.902;2023-11-21T04:17:54;6.72;;;1.10;;
61025;SDS011;46911;32.650;-16.902;2023-11-21T04:19:59;5.80;;;1.02;;
61025;SDS011;46911;32.650;-16.902;2023-11-21T04:22:00;8.63;;;1.10;;
61025;SDS011;46911;32.650;-16.902;2023-11-21T04:24:01;7.25;;;0.95;;
61025;SDS011;46911;32.650;-16.902;2023-11-21T04:26:02;6.25;;;1.30;;
61025;SDS011;46911;32.650;-16.902;2023-11-21T04:28:03;3.95;;;1.05;;
61025;SDS011;46911;32.650;-16.902;2023-11-21T04:30:07;4.35;;;1.00;;
61025;SDS011;46911;32.650;-16.902;2023-11-21T04:32:10;7.93;;;1.27;;
61025;SDS011;46911;32.650;-16.902;2023-11-21T04:34:14;5.35;;;1.20;;
61025;SDS011;46911;32.650;-16.902;2023-11-21T04:36:18;3.83;;;0.73;;
61025;SDS011;46911;32.650;-16.902;2023-11-21T04:38:20;4.00;;;1.00;;
61025;SDS011;46911;32.650;-16.902;2023-11-21T04:40:23;4.03;;;0.82;;
61025;SDS011;46911;32.650;-16.902;2023-11-21T04:42:24;4.50;;;1.17;;
61025;SDS011;46911;32.650;-16.902;2023-11-21T04:44:29;11.90;;;1.90;;
61025;SDS011;46911;32.650;-16.902;2023-11-21T04:46:35;9.10;;;1.05;;
61025;SDS011;46911;32.650;-16.902;2023-11-21T04:48:36;5.13;;;1.40;;
61025;SDS011;46911;32.650;-16.902;2023-11-21T04:50:39;8.50;;;1.08;;
61025;SDS011;46911;32.650;-16.902;2023-11-21T04:52:40;5.22;;;0.75;;
61025;SDS011;46911;32.650;-16.902;2023-11-21T04:54:41;11.25;;;1.35;;
61025;SDS011;46911;32.650;-16.902;2023-11-21T04:56:43;4.72;;;0.90;;
61025;SDS011;46911;32.650;-16.902;2023-11-21T04:58:44;6.80;;;1.00;;
61025;SDS011;46911;32.650;-16.902;2023-11-21T05:00:45;7.45;;;1.00;;
61025;SDS011;46911;32.650;-16.902;2023-11-21T05:02:46;2.90;;;0.73;;
61025;SDS011;46911;32.650;-16.902;2023-11-21T05:04:50;2.65;;;0.77;;
61025;SDS011;46911;32.650;-16.902;2023-11-21T05:06:50;5.00;;;0.77;;
61025;SDS011;46911;32.650;-16.902;2023-11-21T05:08:52;5.97;;;1.33;;
61025;SDS011;46911;32.650;-16.902;2023-11-21T05:10:55;5.78;;;1.23;;
61025;SDS011;46911;32.650;-16.902;2023-11-21T05:12:56;5.90;;;1.48;;
61025;SDS011;46911;32.650;-16.902;2023-11-21T05:14:59;5.93;;;1.35;;
61025;SDS011;46911;32.650;-16.902;2023-11-21T05:17:01;10.35;;;1.30;;
61025;SDS011;46911;32.650;-16.902;2023-11-21T05:19:04;3.22;;;0.77;;
61025;SDS011;46911;32.650;-16.902;2023-11-21T05:21:06;5.53;;;0.85;;
61025;SDS011;46911;32.650;-16.902;2023-11-21T05:23:09;4.68;;;0.80;;
61025;SDS011;46911;32.650;-16.902;2023-11-21T05:25:11;3.30;;;1.20;;
61025;SDS011;46911;32.650;-16.902;2023-11-21T05:27:12;3.47;;;0.95;;
61025;SDS011;46911;32.650;-16.902;2023-11-21T05:29:13;3.03;;;0.77;;
61025;SDS011;46911;32.650;-16.902;2023-11-21T05:31:17;5.78;;;1.30;;
61025;SDS011;46911;32.650;-16.902;2023-11-21T05:33:18;9.65;;;1.02;;
61025;SDS011;46911;32.650;-16.902;2023-11-21T05:35:19;4.78;;;1.48;;
61025;SDS011;46911;32.650;-16.902;2023-11-21T05:37:21;12.35;;;1.67;;
61025;SDS011;46911;32.650;-16.902;2023-11-21T05:39:23;2.45;;;0.82;;
61025;SDS011;46911;32.650;-16.902;2023-11-21T05:41:30;5.25;;;0.88;;
61025;SDS011;46911;32.650;-16.902;2023-11-21T05:43:31;9.35;;;1.13;;
61025;SDS011;46911;32.650;-16.902;2023-11-21T05:45:35;6.18;;;1.10;;
61025;SDS011;46911;32.650;-16.902;2023-11-21T05:47:41;6.53;;;1.33;;
61025;SDS011;46911;32.650;-16.902;2023-11-21T05:49:48;5.60;;;1.10;;
61025;SDS011;46911;32.650;-16.902;2023-11-21T05:51:53;9.23;;;1.38;;
61025;SDS011;46911;32.650;-16.902;2023-11-21T05:53:57;8.10;;;1.65;;
61025;SDS011;46911;32.650;-16.902;2023-11-21T05:55:58;8.55;;;1.20;;
61025;SDS011;46911;32.650;-16.902;2023-11-21T05:58:01;4.85;;;1.25;;
61025;SDS011;46911;32.650;-16.902;2023-11-21T06:02:20;8.73;;;1.05;;
61025;SDS011;46911;32.650;-16.902;2023-11-21T06:04:21;4.15;;;1.15;;
61025;SDS011;46911;32.650;-16.902;2023-11-21T06:06:24;10.32;;;1.48;;
61025;SDS011;46911;32.650;-16.902;2023-11-21T06:08:28;12.45;;;1.33;;
61025;SDS011;46911;32.650;-16.902;2023-11-21T06:10:31;8.00;;;1.45;;
61025;SDS011;46911;32.650;-16.902;2023-11-21T06:12:32;5.47;;;1.08;;
61025;SDS011;46911;32.650;-16.902;2023-11-21T06:14:36;4.32;;;1.05;;
61025;SDS011;46911;32.650;-16.902;2023-11-21T06:16:37;11.20;;;1.38;;
61025;SDS011;46911;32.650;-16.902;2023-11-21T06:18:38;12.88;;;1.75;;
61025;SDS011;46911;32.650;-16.902;2023-11-21T06:20:39;7.15;;;1.40;;
61025;SDS011;46911;32.650;-16.902;2023-11-21T06:22:42;5.22;;;1.02;;
61025;SDS011;46911;32.650;-16.902;2023-11-21T06:24:44;15.23;;;1.45;;
61025;SDS011;46911;32.650;-16.902;2023-11-21T06:26:47;16.83;;;1.75;;
61025;SDS011;46911;32.650;-16.902;2023-11-21T06:28:48;9.85;;;1.65;;
61025;SDS011;46911;32.650;-16.902;2023-11-21T06:30:53;12.95;;;1.42;;
61025;SDS011;46911;32.650;-16.902;2023-11-21T06:32:54;5.50;;;1.13;;
61025;SDS011;46911;32.650;-16.902;2023-11-21T06:34:58;10.30;;;1.52;;
61025;SDS011;46911;32.650;-16.902;2023-11-21T06:37:02;10.13;;;1.50;;
61025;SDS011;46911;32.650;-16.902;2023-11-21T06:39:06;13.45;;;1.65;;
61025;SDS011;46911;32.650;-16.902;2023-11-21T06:41:10;13.07;;;1.80;;
61025;SDS011;46911;32.650;-16.902;2023-11-21T06:43:11;7.35;;;1.58;;
61025;SDS011;46911;32.650;-16.902;2023-11-21T06:45:15;10.65;;;1.73;;
61025;SDS011;46911;32.650;-16.902;2023-11-21T06:47:18;11.48;;;1.85;;
61025;SDS011;46911;32.650;-16.902;2023-11-21T06:49:22;10.88;;;1.40;;
61025;SDS011;46911;32.650;-16.902;2023-11-21T06:51:23;13.15;;;1.15;;
61025;SDS011;46911;32.650;-16.902;2023-11-21T06:53:29;16.35;;;1.65;;
61025;SDS011;46911;32.650;-16.902;2023-11-21T06:55:32;20.30;;;2.35;;
61025;SDS011;46911;32.650;-16.902;2023-11-21T06:57:33;7.63;;;2.05;;
61025;SDS011;46911;32.650;-16.902;2023-11-21T06:59:37;14.07;;;1.80;;
61025;SDS011;46911;32.650;-16.902;2023-11-21T07:01:41;15.20;;;2.20;;
61025;SDS011;46911;32.650;-16.902;2023-11-21T07:03:44;11.60;;;1.75;;
61025;SDS011;46911;32.650;-16.902;2023-11-21T07:05:47;17.70;;;2.42;;
61025;SDS011;46911;32.650;-16.902;2023-11-21T07:07:50;31.52;;;3.63;;
61025;SDS011;46911;32.650;-16.902;2023-11-21T07:09:53;20.08;;;2.80;;
61025;SDS011;46911;32.650;-16.902;2023-11-21T07:11:54;26.10;;;3.45;;
61025;SDS011;46911;32.650;-16.902;2023-11-21T07:13:57;22.98;;;2.95;;
61025;SDS011;46911;32.650;-16.902;2023-11-21T07:15:59;24.98;;;3.00;;
61025;SDS011;46911;32.650;-16.902;2023-11-21T07:18:00;26.08;;;3.00;;
61025;SDS011;46911;32.650;-16.902;2023-11-21T07:20:03;20.08;;;3.00;;
61025;SDS011;46911;32.650;-16.902;2023-11-21T07:22:09;16.58;;;2.97;;
61025;SDS011;46911;32.650;-16.902;2023-11-21T07:24:11;32.30;;;3.53;;
61025;SDS011;46911;32.650;-16.902;2023-11-21T07:26:14;34.35;;;5.07;;
61025;SDS011;46911;32.650;-16.902;2023-11-21T07:28:15;25.85;;;3.28;;
61025;SDS011;46911;32.650;-16.902;2023-11-21T07:30:16;24.10;;;3.00;;
61025;SDS011;46911;32.650;-16.902;2023-11-21T07:32:20;15.73;;;2.67;;
61025;SDS011;46911;32.650;-16.902;2023-11-21T07:34:23;8.90;;;2.55;;
61025;SDS011;46911;32.650;-16.902;2023-11-21T07:36:27;18.45;;;2.83;;
61025;SDS011;46911;32.650;-16.902;2023-11-21T07:38:30;14.82;;;2.67;;
61025;SDS011;46911;32.650;-16.902;2023-11-21T07:40:33;14.18;;;3.47;;
61025;SDS011;46911;32.650;-16.902;2023-11-21T07:42:34;14.48;;;2.28;;
61025;SDS011;46911;32.650;-16.902;2023-11-21T07:44:35;17.92;;;2.60;;
61025;SDS011;46911;32.650;-16.902;2023-11-21T07:46:36;22.48;;;3.83;;
61025;SDS011;46911;32.650;-16.902;2023-11-21T07:48:41;16.75;;;3.72;;
61025;SDS011;46911;32.650;-16.902;2023-11-21T07:50:46;15.90;;;2.55;;
61025;SDS011;46911;32.650;-16.902;2023-11-21T07:52:48;17.75;;;3.55;;
61025;SDS011;46911;32.650;-16.902;2023-11-21T07:54:50;27.08;;;3.83;;
61025;SDS011;46911;32.650;-16.902;2023-11-21T07:56:51;19.42;;;3.42;;
61025;SDS011;46911;32.650;-16.902;2023-11-21T07:58:55;24.90;;;4.20;;
61025;SDS011;46911;32.650;-16.902;2023-11-21T08:00:56;21.77;;;3.90;;
61025;SDS011;46911;32.650;-16.902;2023-11-21T08:03:01;15.52;;;3.58;;
61025;SDS011;46911;32.650;-16.902;2023-11-21T08:05:02;15.13;;;3.15;;
61025;SDS011;46911;32.650;-16.902;2023-11-21T08:07:03;20.25;;;3.85;;
61025;SDS011;46911;32.650;-16.902;2023-11-21T08:09:04;17.73;;;4.15;;
61025;SDS011;46911;32.650;-16.902;2023-11-21T08:11:05;19.52;;;4.38;;
61025;SDS011;46911;32.650;-16.902;2023-11-21T08:13:10;18.15;;;3.60;;
61025;SDS011;46911;32.650;-16.902;2023-11-21T08:15:14;21.08;;;4.03;;
61025;SDS011;46911;32.650;-16.902;2023-11-21T08:17:18;19.05;;;3.63;;
61025;SDS011;46911;32.650;-16.902;2023-11-21T08:19:20;16.85;;;3.55;;
61025;SDS011;46911;32.650;-16.902;2023-11-21T08:21:21;19.95;;;3.92;;
61025;SDS011;46911;32.650;-16.902;2023-11-21T08:23:25;26.70;;;3.20;;
61025;SDS011;46911;32.650;-16.902;2023-11-21T08:25:26;21.95;;;3.08;;
61025;SDS011;46911;32.650;-16.902;2023-11-21T08:27:27;16.08;;;3.20;;
61025;SDS011;46911;32.650;-16.902;2023-11-21T08:29:28;18.60;;;3.17;;
61025;SDS011;46911;32.650;-16.902;2023-11-21T08:31:29;33.15;;;3.80;;
61025;SDS011;46911;32.650;-16.902;2023-11-21T08:33:30;36.53;;;3.88;;
61025;SDS011;46911;32.650;-16.902;2023-11-21T08:35:31;23.23;;;3.53;;
61025;SDS011;46911;32.650;-16.902;2023-11-21T08:37:32;22.50;;;3.75;;
61025;SDS011;46911;32.650;-16.902;2023-11-21T08:39:38;20.65;;;4.75;;
61025;SDS011;46911;32.650;-16.902;2023-11-21T08:41:42;34.78;;;4.82;;
61025;SDS011;46911;32.650;-16.902;2023-11-21T08:43:43;25.75;;;3.88;;
61025;SDS011;46911;32.650;-16.902;2023-11-21T08:45:45;17.27;;;4.15;;
61025;SDS011;46911;32.650;-16.902;2023-11-21T08:47:46;28.15;;;3.17;;
61025;SDS011;46911;32.650;-16.902;2023-11-21T08:49:47;19.88;;;3.80;;
61025;SDS011;46911;32.650;-16.902;2023-11-21T08:51:48;20.38;;;3.22;;
61025;SDS011;46911;32.650;-16.902;2023-11-21T08:53:49;36.40;;;3.65;;
61025;SDS011;46911;32.650;-16.902;2023-11-21T08:55:50;21.23;;;3.95;;
61025;SDS011;46911;32.650;-16.902;2023-11-21T08:57:51;26.27;;;4.15;;
61025;SDS011;46911;32.650;-16.902;2023-11-21T08:59:54;49.33;;;4.38;;
61025;SDS011;46911;32.650;-16.902;2023-11-21T09:01:58;43.38;;;4.60;;
61025;SDS011;46911;32.650;-16.902;2023-11-21T09:03:58;21.15;;;3.22;;
61025;SDS011;46911;32.650;-16.902;2023-11-21T09:05:59;25.23;;;3.53;;
61025;SDS011;46911;32.650;-16.902;2023-11-21T09:08:01;17.00;;;4.30;;
61025;SDS011;46911;32.650;-16.902;2023-11-21T09:10:02;13.20;;;3.28;;
61025;SDS011;46911;32.650;-16.902;2023-11-21T09:12:09;32.38;;;3.72;;
61025;SDS011;46911;32.650;-16.902;2023-11-21T09:14:14;32.03;;;4.18;;
61025;SDS011;46911;32.650;-16.902;2023-11-21T09:16:16;16.35;;;3.88;;
61025;SDS011;46911;32.650;-16.902;2023-11-21T09:18:22;20.08;;;3.47;;
61025;SDS011;46911;32.650;-16.902;2023-11-21T09:20:26;23.08;;;6.50;;
61025;SDS011;46911;32.650;-16.902;2023-11-21T09:22:29;26.85;;;4.28;;
61025;SDS011;46911;32.650;-16.902;2023-11-21T09:24:33;22.52;;;3.83;;
61025;SDS011;46911;32.650;-16.902;2023-11-21T09:26:37;21.70;;;3.42;;
61025;SDS011;46911;32.650;-16.902;2023-11-21T09:28:40;20.55;;;3.35;;
61025;SDS011;46911;32.650;-16.902;2023-11-21T09:30:43;20.85;;;3.13;;
61025;SDS011;46911;32.650;-16.902;2023-11-21T09:32:49;16.88;;;4.03;;
61025;SDS011;46911;32.650;-16.902;2023-11-21T09:34:51;23.23;;;3.50;;
61025;SDS011;46911;32.650;-16.902;2023-11-21T09:36:52;32.05;;;3.85;;
61025;SDS011;46911;32.650;-16.902;2023-11-21T09:39:08;14.80;;;2.78;;
61025;SDS011;46911;32.650;-16.902;2023-11-21T09:41:12;35.28;;;3.72;;
61025;SDS011;46911;32.650;-16.902;2023-11-21T09:43:36;19.90;;;3.33;;
61025;SDS011;46911;32.650;-16.902;2023-11-21T09:45:38;28.25;;;3.45;;
61025;SDS011;46911;32.650;-16.902;2023-11-21T09:47:45;23.52;;;3.67;;
61025;SDS011;46911;32.650;-16.902;2023-11-21T09:49:47;32.83;;;4.38;;
61025;SDS011;46911;32.650;-16.902;2023-11-21T09:51:49;30.05;;;4.43;;
61025;SDS011;46911;32.650;-16.902;2023-11-21T09:53:54;43.28;;;6.15;;
61025;SDS011;46911;32.650;-16.902;2023-11-21T09:55:59;25.45;;;4.97;;
61025;SDS011;46911;32.650;-16.902;2023-11-21T09:58:02;34.10;;;5.88;;
61025;SDS011;46911;32.650;-16.902;2023-11-21T10:00:11;26.38;;;4.70;;
61025;SDS011;46911;32.650;-16.902;2023-11-21T10:02:15;23.23;;;4.72;;
61025;SDS011;46911;32.650;-16.902;2023-11-21T10:04:19;30.80;;;5.55;;
61025;SDS011;46911;32.650;-16.902;2023-11-21T10:06:21;26.83;;;5.50;;
61025;SDS011;46911;32.650;-16.902;2023-11-21T10:08:31;29.73;;;4.90;;
61025;SDS011;46911;32.650;-16.902;2023-11-21T10:10:33;33.13;;;5.13;;
61025;SDS011;46911;32.650;-16.902;2023-11-21T10:12:36;22.95;;;5.13;;
61025;SDS011;46911;32.650;-16.902;2023-11-21T10:14:39;19.88;;;4.43;;
61025;SDS011;46911;32.650;-16.902;2023-11-21T10:16:42;31.00;;;5.65;;
61025;SDS011;46911;32.650;-16.902;2023-11-21T10:18:48;21.52;;;4.80;;
61025;SDS011;46911;32.650;-16.902;2023-11-21T10:20:58;16.10;;;3.67;;
61025;SDS011;46911;32.650;-16.902;2023-11-21T10:23:00;19.77;;;3.72;;
61025;SDS011;46911;32.650;-16.902;2023-11-21T10:25:05;13.25;;;3.03;;
61025;SDS011;46911;32.650;-16.902;2023-11-21T10:27:08;17.05;;;3.90;;
61025;SDS011;46911;32.650;-16.902;2023-11-21T10:29:09;14.60;;;2.92;;
61025;SDS011;46911;32.650;-16.902;2023-11-21T10:31:16;8.53;;;2.10;;
61025;SDS011;46911;32.650;-16.902;2023-11-21T10:33:18;20.42;;;2.38;;
61025;SDS011;46911;32.650;-16.902;2023-11-21T10:35:46;26.98;;;5.20;;
61025;SDS011;46911;32.650;-16.902;2023-11-21T10:37:59;18.95;;;2.83;;
61025;SDS011;46911;32.650;-16.902;2023-11-21T10:40:01;11.63;;;2.80;;
61025;SDS011;46911;32.650;-16.902;2023-11-21T10:42:02;32.35;;;3.95;;
61025;SDS011;46911;32.650;-16.902;2023-11-21T10:44:09;8.70;;;2.20;;
61025;SDS011;46911;32.650;-16.902;2023-11-21T10:46:11;21.65;;;3.28;;
61025;SDS011;46911;32.650;-16.902;2023-11-21T10:48:14;10.90;;;2.47;;
61025;SDS011;46911;32.650;-16.902;2023-11-21T10:50:16;12.90;;;2.50;;
61025;SDS011;46911;32.650;-16.902;2023-11-21T10:52:19;16.27;;;2.80;;
61025;SDS011;46911;32.650;-16.902;2023-11-21T10:54:28;12.70;;;2.55;;
61025;SDS011;46911;32.650;-16.902;2023-11-21T10:56:29;21.92;;;2.38;;
61025;SDS011;46911;32.650;-16.902;2023-11-21T10:58:30;18.95;;;3.28;;
61025;SDS011;46911;32.650;-16.902;2023-11-21T11:00:33;21.20;;;2.90;;
61025;SDS011;46911;32.650;-16.902;2023-11-21T11:02:38;22.23;;;3.20;;
61025;SDS011;46911;32.650;-16.902;2023-11-21T11:04:39;15.73;;;3.13;;
61025;SDS011;46911;32.650;-16.902;2023-11-21T11:06:42;11.57;;;2.03;;
61025;SDS011;46911;32.650;-16.902;2023-11-21T11:08:44;16.15;;;2.15;;
61025;SDS011;46911;32.650;-16.902;2023-11-21T11:10:50;10.15;;;2.03;;
61025;SDS011;46911;32.650;-16.902;2023-11-21T11:12:51;50.67;;;5.22;;
61025;SDS011;46911;32.650;-16.902;2023-11-21T11:14:54;17.23;;;2.72;;
61025;SDS011;46911;32.650;-16.902;2023-11-21T11:16:59;14.85;;;2.30;;
61025;SDS011;46911;32.650;-16.902;2023-11-21T11:19:06;21.85;;;2.83;;
61025;SDS011;46911;32.650;-16.902;2023-11-21T11:21:16;12.05;;;2.55;;
61025;SDS011;46911;32.650;-16.902;2023-11-21T11:31:32;6.90;;;1.63;;
61025;SDS011;46911;32.650;-16.902;2023-11-21T11:33:57;18.63;;;2.47;;
61025;SDS011;46911;32.650;-16.902;2023-11-21T11:38:33;12.73;;;2.25;;
61025;SDS011;46911;32.650;-16.902;2023-11-21T11:40:41;13.23;;;1.75;;
61025;SDS011;46911;32.650;-16.902;2023-11-21T11:42:58;9.57;;;2.08;;
61025;SDS011;46911;32.650;-16.902;2023-11-21T11:45:03;16.85;;;2.20;;
61025;SDS011;46911;32.650;-16.902;2023-11-21T11:47:23;19.23;;;2.70;;
61025;SDS011;46911;32.650;-16.902;2023-11-21T11:49:28;17.27;;;1.70;;
61025;SDS011;46911;32.650;-16.902;2023-11-21T11:51:29;14.55;;;2.00;;
61025;SDS011;46911;32.650;-16.902;2023-11-21T11:53:39;12.95;;;2.50;;
61025;SDS011;46911;32.650;-16.902;2023-11-21T11:55:43;19.98;;;3.67;;
61025;SDS011;46911;32.650;-16.902;2023-11-21T11:57:46;30.52;;;3.58;;
61025;SDS011;46911;32.650;-16.902;2023-11-21T12:02:16;17.95;;;2.70;;
61025;SDS011;46911;32.650;-16.902;2023-11-21T12:06:27;18.10;;;3.45;;
61025;SDS011;46911;32.650;-16.902;2023-11-21T12:08:34;18.15;;;3.22;;
61025;SDS011;46911;32.650;-16.902;2023-11-21T12:10:37;8.68;;;2.20;;
61025;SDS011;46911;32.650;-16.902;2023-11-21T12:12:45;9.05;;;2.35;;
61025;SDS011;46911;32.650;-16.902;2023-11-21T12:14:50;14.55;;;2.22;;